PWSweather.com
Personal Weather Stations
Station Observations
KWIATHEL1
Marinette County, Athelstane, WI 54104

Marinette CountyAthelstane, WI 54104

Lat: 45.4, Lon: -88.12

Elevation: 960

Station Type: Acurite 5in1 Pro

http://weather.athelstanewi.com

Latest ConditionsUpdated 8:25:01 PM CDT Tuesday, Aug 23, 2016
Currently Today's Max Today's Min Today's Average
Temperature 69.8°F21.0°C 82.4°F28.0°C 57.2°F14.0°C 70.0°F21.1°C
Dew Point 63.7°F17.6°C 66.6°F19.2°C 56.1°F13.4°C 62.2°F16.8°C
Winds Calm Calm 5.8 mph NW9.3 kmh NW - 1.8 mph 2.9 kmh
Wind Gusts 2.3 mph3.7 kmh 10.4 mph16.7 kmh - -
Humidity 81% 96% 56% 78%
Pressure 30.01 in1016.3 mb 30.12 in1020.0 mb 22.97 in777.9 mb -
Precipitation - 0.07 in1.8 mm - -
Hour Temp Dew Point Humidity Winds Wind Gusts Pressure Precip Precip Rate Daily Precip Total
08:25 PM 69.8°F21.0°C 63.7°F17.6°C 81% Calm Calm 2.3 mph3.7 kmh 30.01 in1016.3 mb - 0.00 in0.0 mm 0.07 in1.8 mm
08:20 PM 69.8°F21.0°C 63.7°F17.6°C 81% Calm Calm -- 30.01 in1016.3 mb - 0.00 in0.0 mm 0.07 in1.8 mm
08:15 PM 69.8°F21.0°C 63.7°F17.6°C 81% Calm Calm -- 30.00 in1015.9 mb - 0.00 in0.0 mm 0.07 in1.8 mm
08:10 PM 69.8°F21.0°C 63.7°F17.6°C 81% Calm Calm -- 30.01 in1016.3 mb - 0.00 in0.0 mm 0.07 in1.8 mm
08:05 PM 69.8°F21.0°C 63.3°F17.4°C 80% Calm Calm 1.2 mph1.9 kmh 30.00 in1015.9 mb - 0.00 in0.0 mm 0.07 in1.8 mm
08:00 PM 71.6°F22.0°C 65.1°F18.4°C 80% Calm Calm -- 30.01 in1016.3 mb - 0.00 in0.0 mm 0.07 in1.8 mm
07:55 PM 71.6°F22.0°C 64.7°F18.2°C 79% Calm Calm -- 30.01 in1016.3 mb - 0.00 in0.0 mm 0.07 in1.8 mm
07:50 PM 71.6°F22.0°C 64.7°F18.2°C 79% Calm Calm -- 30.01 in1016.3 mb - 0.00 in0.0 mm 0.07 in1.8 mm
07:45 PM 71.6°F22.0°C 64.4°F18.0°C 78% Calm Calm -- 30.01 in1016.3 mb - 0.00 in0.0 mm 0.07 in1.8 mm
07:40 PM 71.6°F22.0°C 63.6°F17.6°C 76% Calm Calm -- 30.01 in1016.3 mb - 0.00 in0.0 mm 0.07 in1.8 mm
07:35 PM 73.4°F23.0°C 65.0°F18.3°C 75% Calm Calm -- 30.01 in1016.3 mb - 0.00 in0.0 mm 0.07 in1.8 mm
07:30 PM 73.4°F23.0°C 65.0°F18.3°C 75% 1.2 mph ENE1.9 kmh ENE 1.2 mph1.9 kmh 30.01 in1016.3 mb - 0.00 in0.0 mm 0.07 in1.8 mm
07:25 PM 73.4°F23.0°C 64.6°F18.1°C 74% Calm Calm 1.2 mph1.9 kmh 30.01 in1016.3 mb - 0.00 in0.0 mm 0.07 in1.8 mm
07:20 PM 73.4°F23.0°C 64.2°F17.9°C 73% Calm Calm -- 30.01 in1016.3 mb - 0.00 in0.0 mm 0.07 in1.8 mm
07:15 PM 73.4°F23.0°C 63.8°F17.7°C 72% Calm Calm -- 30.02 in1016.6 mb - 0.00 in0.0 mm 0.07 in1.8 mm
07:10 PM 75.2°F24.0°C 64.7°F18.2°C 70% Calm Calm -- 30.01 in1016.3 mb - 0.00 in0.0 mm 0.07 in1.8 mm
07:05 PM 75.2°F24.0°C 64.7°F18.2°C 70% Calm Calm -- 30.01 in1016.3 mb - 0.00 in0.0 mm 0.07 in1.8 mm
07:00 PM 75.2°F24.0°C 64.7°F18.2°C 70% 1.2 mph NE1.9 kmh NE 2.3 mph3.7 kmh 30.01 in1016.3 mb - 0.00 in0.0 mm 0.07 in1.8 mm
06:55 PM 75.2°F24.0°C 64.3°F17.9°C 69% 1.2 mph ESE1.9 kmh ESE 3.5 mph5.6 kmh 30.02 in1016.6 mb - 0.00 in0.0 mm 0.07 in1.8 mm
06:50 PM 77.0°F25.0°C 65.6°F18.7°C 68% Calm Calm -- 30.01 in1016.3 mb - 0.00 in0.0 mm 0.07 in1.8 mm
06:45 PM 77.0°F25.0°C 64.8°F18.2°C 66% 1.2 mph NNE1.9 kmh NNE 2.3 mph3.7 kmh 30.02 in1016.6 mb - 0.00 in0.0 mm 0.07 in1.8 mm
06:40 PM 77.0°F25.0°C 64.8°F18.2°C 66% 2.3 mph NE3.7 kmh NE 3.5 mph5.6 kmh 30.01 in1016.3 mb - 0.00 in0.0 mm 0.07 in1.8 mm
06:35 PM 75.2°F24.0°C 63.1°F17.3°C 66% 1.2 mph N1.9 kmh N 2.3 mph3.7 kmh 30.01 in1016.3 mb - 0.00 in0.0 mm 0.07 in1.8 mm
06:30 PM 77.0°F25.0°C 64.3°F17.9°C 65% 1.2 mph NNE1.9 kmh NNE 3.5 mph5.6 kmh 30.01 in1016.3 mb - 0.00 in0.0 mm 0.07 in1.8 mm
06:25 PM 77.0°F25.0°C 64.3°F17.9°C 65% 2.3 mph W3.7 kmh W 2.3 mph3.7 kmh 30.01 in1016.3 mb - 0.00 in0.0 mm 0.07 in1.8 mm
06:20 PM 77.0°F25.0°C 64.3°F17.9°C 65% 2.3 mph N3.7 kmh N 2.3 mph3.7 kmh 30.01 in1016.3 mb - 0.00 in0.0 mm 0.07 in1.8 mm
06:15 PM 77.0°F25.0°C 63.4°F17.4°C 63% 2.3 mph NW3.7 kmh NW 8.1 mph13.0 kmh 30.01 in1016.3 mb - 0.00 in0.0 mm 0.07 in1.8 mm
06:10 PM 77.0°F25.0°C 63.4°F17.4°C 63% 2.3 mph E3.7 kmh E 3.5 mph5.6 kmh 30.02 in1016.6 mb - 0.00 in0.0 mm 0.07 in1.8 mm
06:05 PM 77.0°F25.0°C 63.4°F17.4°C 63% 3.5 mph 5.6 kmh 4.6 mph7.4 kmh 30.01 in1016.3 mb - 0.00 in0.0 mm 0.07 in1.8 mm
06:00 PM 78.8°F26.0°C 65.1°F18.4°C 63% 3.5 mph SW5.6 kmh SW 3.5 mph5.6 kmh 30.01 in1016.3 mb - 0.00 in0.0 mm 0.07 in1.8 mm
05:55 PM 78.8°F26.0°C 65.1°F18.4°C 63% 3.5 mph ESE5.6 kmh ESE 5.8 mph9.3 kmh 30.01 in1016.3 mb - 0.00 in0.0 mm 0.07 in1.8 mm
05:50 PM 78.8°F26.0°C 65.1°F18.4°C 63% 2.3 mph NNW3.7 kmh NNW 3.5 mph5.6 kmh 30.01 in1016.3 mb - 0.00 in0.0 mm 0.07 in1.8 mm
05:45 PM 78.8°F26.0°C 65.1°F18.4°C 63% 2.3 mph NNW3.7 kmh NNW 3.5 mph5.6 kmh 30.01 in1016.3 mb - 0.00 in0.0 mm 0.07 in1.8 mm
05:40 PM 78.8°F26.0°C 64.2°F17.9°C 61% 1.2 mph WSW1.9 kmh WSW 2.3 mph3.7 kmh 30.01 in1016.3 mb - 0.00 in0.0 mm 0.07 in1.8 mm
05:35 PM 79.2°F26.2°C 65.0°F18.3°C 62% 1.2 mph 1.9 kmh 1.2 mph1.9 kmh 30.01 in1016.3 mb - 0.00 in0.0 mm 0.07 in1.8 mm
05:30 PM 80.6°F27.0°C 65.4°F18.6°C 60% 1.2 mph 1.9 kmh 2.3 mph3.7 kmh 30.01 in1016.3 mb - 0.00 in0.0 mm 0.07 in1.8 mm
05:25 PM 79.8°F26.6°C 64.7°F18.2°C 60% 3.5 mph NE5.6 kmh NE 3.5 mph5.6 kmh 30.01 in1016.3 mb - 0.00 in0.0 mm 0.07 in1.8 mm
05:20 PM 80.6°F27.0°C 65.4°F18.6°C 60% 3.5 mph N5.6 kmh N 5.8 mph9.3 kmh 30.01 in1016.3 mb - 0.00 in0.0 mm 0.07 in1.8 mm
05:15 PM 80.6°F27.0°C 64.5°F18.1°C 58% 4.6 mph WSW7.4 kmh WSW 6.9 mph11.1 kmh 30.01 in1016.3 mb - 0.00 in0.0 mm 0.07 in1.8 mm
05:10 PM 80.6°F27.0°C 65.4°F18.6°C 60% 3.5 mph NNE5.6 kmh NNE 10.4 mph16.7 kmh 30.01 in1016.3 mb - 0.00 in0.0 mm 0.07 in1.8 mm
05:05 PM 80.6°F27.0°C 65.9°F18.8°C 61% 2.3 mph N3.7 kmh N 3.5 mph5.6 kmh 30.01 in1016.3 mb - 0.00 in0.0 mm 0.07 in1.8 mm
05:00 PM 78.8°F26.0°C 65.1°F18.4°C 63% 3.5 mph N5.6 kmh N 3.5 mph5.6 kmh 30.02 in1016.6 mb - 0.00 in0.0 mm 0.07 in1.8 mm
04:55 PM 78.8°F26.0°C 66.0°F18.9°C 65% 3.5 mph WNW5.6 kmh WNW 8.1 mph13.0 kmh 30.02 in1016.6 mb - 0.00 in0.0 mm 0.07 in1.8 mm
04:50 PM 78.8°F26.0°C 65.1°F18.4°C 63% 2.3 mph NNW3.7 kmh NNW 3.5 mph5.6 kmh 30.02 in1016.6 mb - 0.00 in0.0 mm 0.07 in1.8 mm
04:45 PM 78.8°F26.0°C 64.2°F17.9°C 61% 2.3 mph NW3.7 kmh NW 3.5 mph5.6 kmh 30.02 in1016.6 mb - 0.00 in0.0 mm 0.07 in1.8 mm
04:40 PM 80.6°F27.0°C 64.9°F18.3°C 59% 3.5 mph NNW5.6 kmh NNW 5.8 mph9.3 kmh 30.02 in1016.6 mb - 0.00 in0.0 mm 0.07 in1.8 mm
04:35 PM 80.6°F27.0°C 64.5°F18.1°C 58% 3.5 mph N5.6 kmh N 3.5 mph5.6 kmh 30.02 in1016.6 mb - 0.00 in0.0 mm 0.07 in1.8 mm
04:30 PM 80.6°F27.0°C 64.5°F18.1°C 58% 3.5 mph NNW5.6 kmh NNW 3.5 mph5.6 kmh 30.02 in1016.6 mb - 0.00 in0.0 mm 0.07 in1.8 mm
04:25 PM 80.6°F27.0°C 64.9°F18.3°C 59% 3.5 mph WNW5.6 kmh WNW 6.9 mph11.1 kmh 30.03 in1016.9 mb - 0.00 in0.0 mm 0.07 in1.8 mm
04:20 PM 80.6°F27.0°C 64.5°F18.1°C 58% 3.5 mph NW5.6 kmh NW 4.6 mph7.4 kmh 30.02 in1016.6 mb - 0.00 in0.0 mm 0.07 in1.8 mm
04:15 PM 80.6°F27.0°C 64.9°F18.3°C 59% 3.5 mph ESE5.6 kmh ESE 3.5 mph5.6 kmh 30.02 in1016.6 mb - 0.00 in0.0 mm 0.07 in1.8 mm
04:10 PM 82.4°F28.0°C 66.6°F19.2°C 59% 3.5 mph 5.6 kmh 4.6 mph7.4 kmh 30.02 in1016.6 mb - 0.00 in0.0 mm 0.07 in1.8 mm
04:05 PM 80.6°F27.0°C 64.9°F18.3°C 59% 3.5 mph WNW5.6 kmh WNW 3.5 mph5.6 kmh 30.02 in1016.6 mb - 0.00 in0.0 mm 0.07 in1.8 mm
04:00 PM 81.2°F27.3°C 64.0°F17.8°C 56% 4.6 mph NNW7.4 kmh NNW 6.9 mph11.1 kmh 30.02 in1016.6 mb - 0.00 in0.0 mm 0.07 in1.8 mm
03:55 PM 82.4°F28.0°C 66.1°F18.9°C 58% 3.5 mph 5.6 kmh 6.9 mph11.1 kmh 30.02 in1016.6 mb - 0.00 in0.0 mm 0.07 in1.8 mm
03:50 PM 81.1°F27.3°C 65.4°F18.6°C 59% 2.3 mph N3.7 kmh N 2.3 mph3.7 kmh 30.03 in1016.9 mb - 0.00 in0.0 mm 0.07 in1.8 mm
03:45 PM 82.4°F28.0°C 66.1°F18.9°C 58% 3.5 mph NE5.6 kmh NE 6.9 mph11.1 kmh 30.03 in1016.9 mb - 0.00 in0.0 mm 0.07 in1.8 mm
03:40 PM 80.6°F27.0°C 64.5°F18.1°C 58% 3.5 mph S5.6 kmh S 2.3 mph3.7 kmh 30.03 in1016.9 mb - 0.00 in0.0 mm 0.07 in1.8 mm
03:35 PM 80.6°F27.0°C 64.9°F18.3°C 59% 3.5 mph NNE5.6 kmh NNE 3.5 mph5.6 kmh 30.03 in1016.9 mb - 0.00 in0.0 mm 0.07 in1.8 mm
03:30 PM 80.6°F27.0°C 65.4°F18.6°C 60% 3.5 mph WSW5.6 kmh WSW 4.6 mph7.4 kmh 30.03 in1016.9 mb - 0.00 in0.0 mm 0.07 in1.8 mm
03:25 PM 80.6°F27.0°C 65.9°F18.8°C 61% 2.3 mph N3.7 kmh N 5.8 mph9.3 kmh 30.02 in1016.6 mb - 0.00 in0.0 mm 0.07 in1.8 mm
03:20 PM 78.8°F26.0°C 64.2°F17.9°C 61% 1.2 mph W1.9 kmh W 2.3 mph3.7 kmh 30.03 in1016.9 mb - 0.00 in0.0 mm 0.07 in1.8 mm
03:15 PM 78.8°F26.0°C 64.2°F17.9°C 61% 3.5 mph ESE5.6 kmh ESE 2.3 mph3.7 kmh 30.03 in1016.9 mb - 0.00 in0.0 mm 0.07 in1.8 mm
03:10 PM 80.6°F27.0°C 65.4°F18.6°C 60% 3.5 mph SSW5.6 kmh SSW 3.5 mph5.6 kmh 22.97 in777.9 mb - 0.00 in0.0 mm 0.07 in1.8 mm
03:00 PM 82.4°F28.0°C 65.6°F18.7°C 57% 3.5 mph N5.6 kmh N 8.1 mph13.0 kmh 30.03 in1016.9 mb - 0.00 in0.0 mm 0.07 in1.8 mm
02:55 PM 80.6°F27.0°C 64.5°F18.1°C 58% 3.5 mph NNW5.6 kmh NNW 4.6 mph7.4 kmh 30.03 in1016.9 mb - 0.00 in0.0 mm 0.07 in1.8 mm
02:50 PM 80.6°F27.0°C 64.5°F18.1°C 58% 4.6 mph NNE7.4 kmh NNE 8.1 mph13.0 kmh 30.03 in1016.9 mb - 0.00 in0.0 mm 0.07 in1.8 mm
02:45 PM 80.6°F27.0°C 64.5°F18.1°C 58% 3.5 mph WNW5.6 kmh WNW 5.8 mph9.3 kmh 30.04 in1017.3 mb - 0.00 in0.0 mm 0.07 in1.8 mm
02:40 PM 80.6°F27.0°C 64.9°F18.3°C 59% 2.3 mph W3.7 kmh W 5.8 mph9.3 kmh 30.04 in1017.3 mb - 0.00 in0.0 mm 0.07 in1.8 mm
02:35 PM 80.6°F27.0°C 64.5°F18.1°C 58% 2.3 mph E3.7 kmh E 1.2 mph1.9 kmh 30.04 in1017.3 mb - 0.00 in0.0 mm 0.07 in1.8 mm
02:30 PM 80.6°F27.0°C 64.9°F18.3°C 59% 3.5 mph NNW5.6 kmh NNW 3.5 mph5.6 kmh 30.05 in1017.6 mb - 0.00 in0.0 mm 0.07 in1.8 mm
02:25 PM 80.6°F27.0°C 65.4°F18.6°C 60% 2.3 mph NNE3.7 kmh NNE 6.9 mph11.1 kmh 30.05 in1017.6 mb - 0.00 in0.0 mm 0.07 in1.8 mm
02:20 PM 80.6°F27.0°C 64.9°F18.3°C 59% 3.5 mph WNW5.6 kmh WNW 3.5 mph5.6 kmh 30.05 in1017.6 mb - 0.00 in0.0 mm 0.07 in1.8 mm
02:15 PM 80.6°F27.0°C 65.4°F18.6°C 60% 2.3 mph E3.7 kmh E 3.5 mph5.6 kmh 30.05 in1017.6 mb - 0.00 in0.0 mm 0.07 in1.8 mm
02:10 PM 80.6°F27.0°C 65.4°F18.6°C 60% 3.5 mph NE5.6 kmh NE 4.6 mph7.4 kmh 30.05 in1017.6 mb - 0.00 in0.0 mm 0.07 in1.8 mm
02:05 PM 80.6°F27.0°C 65.9°F18.8°C 61% 2.3 mph NE3.7 kmh NE 3.5 mph5.6 kmh 30.06 in1017.9 mb - 0.00 in0.0 mm 0.07 in1.8 mm
02:00 PM 80.6°F27.0°C 65.9°F18.8°C 61% 3.5 mph NNW5.6 kmh NNW 6.9 mph11.1 kmh 30.06 in1017.9 mb - 0.00 in0.0 mm 0.07 in1.8 mm
01:55 PM 80.6°F27.0°C 65.9°F18.8°C 61% 3.5 mph N5.6 kmh N 6.9 mph11.1 kmh 30.06 in1017.9 mb - 0.00 in0.0 mm 0.07 in1.8 mm
01:50 PM 80.6°F27.0°C 65.9°F18.8°C 61% 3.5 mph NW5.6 kmh NW 3.5 mph5.6 kmh 30.06 in1017.9 mb - 0.00 in0.0 mm 0.07 in1.8 mm
01:45 PM 80.6°F27.0°C 65.4°F18.6°C 60% 5.8 mph NNW9.3 kmh NNW 6.9 mph11.1 kmh 30.07 in1018.3 mb - 0.00 in0.0 mm 0.07 in1.8 mm
01:40 PM 80.6°F27.0°C 65.4°F18.6°C 60% 5.8 mph N9.3 kmh N 5.8 mph9.3 kmh 30.07 in1018.3 mb - 0.00 in0.0 mm 0.07 in1.8 mm
01:35 PM 80.6°F27.0°C 65.9°F18.8°C 61% 3.5 mph SW5.6 kmh SW 5.8 mph9.3 kmh 30.07 in1018.3 mb - 0.00 in0.0 mm 0.07 in1.8 mm
01:30 PM 80.6°F27.0°C 65.9°F18.8°C 61% 3.5 mph ENE5.6 kmh ENE 2.3 mph3.7 kmh 30.08 in1018.6 mb - 0.00 in0.0 mm 0.07 in1.8 mm
01:25 PM 80.6°F27.0°C 65.9°F18.8°C 61% 3.5 mph NW5.6 kmh NW 3.5 mph5.6 kmh 30.08 in1018.6 mb - 0.00 in0.0 mm 0.07 in1.8 mm
01:20 PM 80.6°F27.0°C 65.9°F18.8°C 61% 3.5 mph N5.6 kmh N 4.6 mph7.4 kmh 30.08 in1018.6 mb - 0.00 in0.0 mm 0.07 in1.8 mm
01:15 PM 80.6°F27.0°C 65.9°F18.8°C 61% 4.6 mph N7.4 kmh N 5.8 mph9.3 kmh 30.08 in1018.6 mb - 0.00 in0.0 mm 0.07 in1.8 mm
01:10 PM 80.6°F27.0°C 66.4°F19.1°C 62% 2.3 mph NNW3.7 kmh NNW 3.5 mph5.6 kmh 30.08 in1018.6 mb - 0.00 in0.0 mm 0.07 in1.8 mm
01:05 PM 78.8°F26.0°C 64.7°F18.2°C 62% 4.6 mph SW7.4 kmh SW 3.5 mph5.6 kmh 30.08 in1018.6 mb - 0.00 in0.0 mm 0.07 in1.8 mm
01:00 PM 78.8°F26.0°C 64.2°F17.9°C 61% 5.8 mph NW9.3 kmh NW 8.1 mph13.0 kmh 30.08 in1018.6 mb - 0.00 in0.0 mm 0.07 in1.8 mm
12:55 PM 78.8°F26.0°C 64.2°F17.9°C 61% 4.6 mph NW7.4 kmh NW 8.1 mph13.0 kmh 30.09 in1019.0 mb - 0.00 in0.0 mm 0.07 in1.8 mm
12:50 PM 78.8°F26.0°C 65.1°F18.4°C 63% 3.5 mph W5.6 kmh W 4.6 mph7.4 kmh 30.09 in1019.0 mb - 0.00 in0.0 mm 0.07 in1.8 mm
12:45 PM 78.8°F26.0°C 66.0°F18.9°C 65% 2.3 mph SW3.7 kmh SW 3.5 mph5.6 kmh 30.08 in1018.6 mb - 0.00 in0.0 mm 0.07 in1.8 mm
12:40 PM 78.8°F26.0°C 65.1°F18.4°C 63% 3.5 mph NE5.6 kmh NE 4.6 mph7.4 kmh 30.08 in1018.6 mb - 0.00 in0.0 mm 0.07 in1.8 mm
12:35 PM 78.8°F26.0°C 65.1°F18.4°C 63% 3.5 mph WSW5.6 kmh WSW 6.9 mph11.1 kmh 30.08 in1018.6 mb - 0.00 in0.0 mm 0.07 in1.8 mm
12:30 PM 78.8°F26.0°C 65.1°F18.4°C 63% 3.5 mph NNW5.6 kmh NNW 4.6 mph7.4 kmh 30.09 in1019.0 mb - 0.00 in0.0 mm 0.07 in1.8 mm
12:25 PM 78.8°F26.0°C 65.1°F18.4°C 63% 3.5 mph ESE5.6 kmh ESE 3.5 mph5.6 kmh 30.09 in1019.0 mb - 0.00 in0.0 mm 0.07 in1.8 mm
12:20 PM 78.8°F26.0°C 65.1°F18.4°C 63% 3.5 mph SW5.6 kmh SW 4.6 mph7.4 kmh 30.09 in1019.0 mb - 0.00 in0.0 mm 0.07 in1.8 mm
12:15 PM 78.8°F26.0°C 66.0°F18.9°C 65% 2.3 mph E3.7 kmh E 3.5 mph5.6 kmh 30.09 in1019.0 mb - 0.00 in0.0 mm 0.07 in1.8 mm
12:10 PM 78.8°F26.0°C 65.1°F18.4°C 63% 3.5 mph ESE5.6 kmh ESE 3.5 mph5.6 kmh 30.09 in1019.0 mb - 0.00 in0.0 mm 0.07 in1.8 mm
12:00 PM 78.8°F26.0°C 65.1°F18.4°C 63% 3.5 mph NNW5.6 kmh NNW 5.8 mph9.3 kmh 30.09 in1019.0 mb - 0.00 in0.0 mm 0.07 in1.8 mm
11:55 AM 78.8°F26.0°C 66.0°F18.9°C 65% 2.3 mph N3.7 kmh N 4.6 mph7.4 kmh 30.09 in1019.0 mb - 0.00 in0.0 mm 0.07 in1.8 mm
11:50 AM 77.0°F25.0°C 64.3°F17.9°C 65% 3.5 mph 5.6 kmh 3.5 mph5.6 kmh 30.09 in1019.0 mb - 0.00 in0.0 mm 0.07 in1.8 mm
11:45 AM 77.0°F25.0°C 64.3°F17.9°C 65% 2.3 mph N3.7 kmh N 3.5 mph5.6 kmh 30.09 in1019.0 mb - 0.00 in0.0 mm 0.07 in1.8 mm
11:40 AM 77.0°F25.0°C 64.3°F17.9°C 65% 3.5 mph ESE5.6 kmh ESE 1.2 mph1.9 kmh 30.09 in1019.0 mb - 0.00 in0.0 mm 0.07 in1.8 mm
11:35 AM 77.0°F25.0°C 64.8°F18.2°C 66% 3.5 mph 5.6 kmh 2.3 mph3.7 kmh 30.09 in1019.0 mb - 0.00 in0.0 mm 0.07 in1.8 mm
11:30 AM 77.0°F25.0°C 64.8°F18.2°C 66% 3.5 mph NW5.6 kmh NW 6.9 mph11.1 kmh 30.09 in1019.0 mb - 0.00 in0.0 mm 0.07 in1.8 mm
11:25 AM 77.0°F25.0°C 64.8°F18.2°C 66% 3.5 mph NW5.6 kmh NW 4.6 mph7.4 kmh 30.10 in1019.3 mb - 0.00 in0.0 mm 0.07 in1.8 mm
11:20 AM 76.2°F24.6°C 65.2°F18.4°C 69% 3.5 mph ESE5.6 kmh ESE 3.5 mph5.6 kmh 30.11 in1019.6 mb - 0.00 in0.0 mm 0.07 in1.8 mm
11:15 AM 75.2°F24.0°C 63.1°F17.3°C 66% 3.5 mph NW5.6 kmh NW 8.1 mph13.0 kmh 30.11 in1019.6 mb - 0.00 in0.0 mm 0.07 in1.8 mm
11:10 AM 75.2°F24.0°C 63.1°F17.3°C 66% 4.6 mph N7.4 kmh N 5.8 mph9.3 kmh 30.11 in1019.6 mb - 0.00 in0.0 mm 0.07 in1.8 mm
11:05 AM 75.2°F24.0°C 64.3°F17.9°C 69% 2.3 mph NNW3.7 kmh NNW 3.5 mph5.6 kmh 30.11 in1019.6 mb - 0.00 in0.0 mm 0.07 in1.8 mm
11:00 AM 75.2°F24.0°C 63.9°F17.7°C 68% 3.5 mph N5.6 kmh N 3.5 mph5.6 kmh 30.11 in1019.6 mb - 0.00 in0.0 mm 0.07 in1.8 mm
10:55 AM 75.2°F24.0°C 64.3°F17.9°C 69% 3.5 mph SE5.6 kmh SE 3.5 mph5.6 kmh 30.11 in1019.6 mb - 0.00 in0.0 mm 0.07 in1.8 mm
10:50 AM 75.2°F24.0°C 63.9°F17.7°C 68% 2.3 mph NNE3.7 kmh NNE 3.5 mph5.6 kmh 30.11 in1019.6 mb - 0.00 in0.0 mm 0.07 in1.8 mm
10:45 AM 75.2°F24.0°C 64.7°F18.2°C 70% 2.3 mph ENE3.7 kmh ENE 4.6 mph7.4 kmh 30.11 in1019.6 mb - 0.00 in0.0 mm 0.07 in1.8 mm
10:40 AM 75.2°F24.0°C 64.7°F18.2°C 70% 2.3 mph N3.7 kmh N 2.3 mph3.7 kmh 30.11 in1019.6 mb - 0.00 in0.0 mm 0.07 in1.8 mm
10:35 AM 73.4°F23.0°C 63.0°F17.2°C 70% 3.5 mph WSW5.6 kmh WSW 3.5 mph5.6 kmh 30.11 in1019.6 mb - 0.00 in0.0 mm 0.07 in1.8 mm
10:30 AM 73.4°F23.0°C 63.0°F17.2°C 70% 3.5 mph N5.6 kmh N 3.5 mph5.6 kmh 30.11 in1019.6 mb - 0.00 in0.0 mm 0.07 in1.8 mm
10:25 AM 73.4°F23.0°C 63.4°F17.4°C 71% 2.3 mph W3.7 kmh W 5.8 mph9.3 kmh 30.11 in1019.6 mb - 0.00 in0.0 mm 0.07 in1.8 mm
10:20 AM 73.4°F23.0°C 63.4°F17.4°C 71% 2.3 mph N3.7 kmh N 3.5 mph5.6 kmh 30.11 in1019.6 mb - 0.00 in0.0 mm 0.07 in1.8 mm
10:15 AM 73.4°F23.0°C 64.2°F17.9°C 73% 2.3 mph SSW3.7 kmh SSW 4.6 mph7.4 kmh 30.11 in1019.6 mb - 0.00 in0.0 mm 0.07 in1.8 mm
10:10 AM 73.4°F23.0°C 64.2°F17.9°C 73% 3.5 mph N5.6 kmh N 4.6 mph7.4 kmh 30.11 in1019.6 mb - 0.00 in0.0 mm 0.07 in1.8 mm
10:05 AM 73.4°F23.0°C 64.6°F18.1°C 74% 3.5 mph WSW5.6 kmh WSW 8.1 mph13.0 kmh 30.11 in1019.6 mb - 0.00 in0.0 mm 0.07 in1.8 mm
10:00 AM 73.4°F23.0°C 64.6°F18.1°C 74% 1.2 mph ENE1.9 kmh ENE 3.5 mph5.6 kmh 30.11 in1019.6 mb - 0.00 in0.0 mm 0.07 in1.8 mm
09:55 AM 71.6°F22.0°C 63.3°F17.4°C 75% 2.3 mph E3.7 kmh E 3.5 mph5.6 kmh 30.11 in1019.6 mb - 0.00 in0.0 mm 0.07 in1.8 mm
09:50 AM 71.6°F22.0°C 63.3°F17.4°C 75% 2.3 mph E3.7 kmh E 3.5 mph5.6 kmh 30.11 in1019.6 mb - 0.00 in0.0 mm 0.07 in1.8 mm
09:45 AM 71.0°F21.7°C 63.4°F17.4°C 77% 2.3 mph NNE3.7 kmh NNE 4.6 mph7.4 kmh 30.10 in1019.3 mb - 0.00 in0.0 mm 0.07 in1.8 mm
09:40 AM 69.8°F21.0°C 62.6°F17.0°C 78% 2.3 mph S3.7 kmh S 2.3 mph3.7 kmh 30.10 in1019.3 mb - 0.00 in0.0 mm 0.07 in1.8 mm
09:35 AM 69.8°F21.0°C 62.6°F17.0°C 78% 2.3 mph N3.7 kmh N 3.5 mph5.6 kmh 30.11 in1019.6 mb - 0.00 in0.0 mm 0.07 in1.8 mm
09:30 AM 69.8°F21.0°C 63.0°F17.2°C 79% 2.3 mph NNE3.7 kmh NNE 3.5 mph5.6 kmh 30.10 in1019.3 mb - 0.00 in0.0 mm 0.07 in1.8 mm
09:25 AM 69.8°F21.0°C 62.6°F17.0°C 78% 3.5 mph E5.6 kmh E 3.5 mph5.6 kmh 30.11 in1019.6 mb - 0.00 in0.0 mm 0.07 in1.8 mm
09:20 AM 69.8°F21.0°C 63.0°F17.2°C 79% 2.3 mph NW3.7 kmh NW 3.5 mph5.6 kmh 30.11 in1019.6 mb - 0.00 in0.0 mm 0.07 in1.8 mm
09:15 AM 69.8°F21.0°C 62.6°F17.0°C 78% 3.5 mph NW5.6 kmh NW 6.9 mph11.1 kmh 30.11 in1019.6 mb - 0.00 in0.0 mm 0.07 in1.8 mm
09:10 AM 69.8°F21.0°C 63.3°F17.4°C 80% 2.3 mph N3.7 kmh N 3.5 mph5.6 kmh 30.11 in1019.6 mb - 0.00 in0.0 mm 0.07 in1.8 mm
09:05 AM 68.0°F20.0°C 61.9°F16.6°C 81% 1.2 mph N1.9 kmh N 3.5 mph5.6 kmh 30.11 in1019.6 mb - 0.00 in0.0 mm 0.07 in1.8 mm
09:00 AM 68.0°F20.0°C 61.9°F16.6°C 81% 2.3 mph SSW3.7 kmh SSW 3.5 mph5.6 kmh 30.11 in1019.6 mb - 0.00 in0.0 mm 0.07 in1.8 mm
08:55 AM 68.0°F20.0°C 62.6°F17.0°C 83% 1.2 mph ENE1.9 kmh ENE 3.5 mph5.6 kmh 30.11 in1019.6 mb - 0.00 in0.0 mm 0.07 in1.8 mm
08:50 AM 68.0°F20.0°C 62.6°F17.0°C 83% 2.3 mph WSW3.7 kmh WSW 4.6 mph7.4 kmh 30.12 in1020.0 mb - 0.00 in0.0 mm 0.07 in1.8 mm
08:45 AM 67.5°F19.7°C 62.1°F16.7°C 83% 2.3 mph NW3.7 kmh NW 3.5 mph5.6 kmh 30.12 in1020.0 mb - 0.00 in0.0 mm 0.07 in1.8 mm
08:40 AM 66.2°F19.0°C 61.9°F16.6°C 86% 1.2 mph SE1.9 kmh SE 3.5 mph5.6 kmh 30.12 in1020.0 mb - 0.00 in0.0 mm 0.07 in1.8 mm
08:35 AM 66.2°F19.0°C 61.9°F16.6°C 86% 2.3 mph NNE3.7 kmh NNE 2.3 mph3.7 kmh 30.12 in1020.0 mb - 0.00 in0.0 mm 0.07 in1.8 mm
08:30 AM 66.2°F19.0°C 61.9°F16.6°C 86% 2.3 mph N3.7 kmh N 3.5 mph5.6 kmh 30.11 in1019.6 mb - 0.00 in0.0 mm 0.07 in1.8 mm
08:25 AM 66.2°F19.0°C 62.2°F16.8°C 87% 1.2 mph NE1.9 kmh NE -- 30.12 in1020.0 mb - 0.00 in0.0 mm 0.07 in1.8 mm
08:20 AM 64.4°F18.0°C 60.4°F15.8°C 87% 2.3 mph NE3.7 kmh NE 4.6 mph7.4 kmh 30.11 in1019.6 mb - 0.00 in0.0 mm 0.07 in1.8 mm
08:15 AM 64.4°F18.0°C 60.8°F16.0°C 88% 1.2 mph E1.9 kmh E 1.2 mph1.9 kmh 30.12 in1020.0 mb - 0.00 in0.0 mm 0.07 in1.8 mm
08:10 AM 64.4°F18.0°C 61.4°F16.3°C 90% 1.2 mph ENE1.9 kmh ENE 3.5 mph5.6 kmh 30.12 in1020.0 mb - 0.00 in0.0 mm 0.07 in1.8 mm
08:05 AM 64.4°F18.0°C 61.7°F16.5°C 91% 1.2 mph N1.9 kmh N 3.5 mph5.6 kmh 30.11 in1019.6 mb - 0.00 in0.0 mm 0.07 in1.8 mm
08:00 AM 62.6°F17.0°C 59.9°F15.5°C 91% 1.2 mph NNE1.9 kmh NNE 2.3 mph3.7 kmh 30.12 in1020.0 mb - 0.00 in0.0 mm 0.07 in1.8 mm
07:55 AM 62.6°F17.0°C 59.9°F15.5°C 91% 1.2 mph ENE1.9 kmh ENE -- 30.12 in1020.0 mb - 0.00 in0.0 mm 0.07 in1.8 mm
07:50 AM 62.6°F17.0°C 59.9°F15.5°C 91% 1.2 mph N1.9 kmh N 3.5 mph5.6 kmh 30.11 in1019.6 mb - 0.00 in0.0 mm 0.07 in1.8 mm
07:45 AM 62.0°F16.7°C 60.0°F15.6°C 93% Calm Calm -- 30.12 in1020.0 mb - 0.00 in0.0 mm 0.07 in1.8 mm
07:40 AM 62.6°F17.0°C 60.2°F15.7°C 92% 1.2 mph NE1.9 kmh NE 2.3 mph3.7 kmh 30.12 in1020.0 mb - 0.00 in0.0 mm 0.07 in1.8 mm
07:35 AM 60.8°F16.0°C 58.8°F14.9°C 93% Calm Calm 3.5 mph5.6 kmh 30.11 in1019.6 mb - 0.00 in0.0 mm 0.07 in1.8 mm
07:30 AM 60.8°F16.0°C 59.1°F15.1°C 94% Calm Calm 1.2 mph1.9 kmh 30.11 in1019.6 mb - 0.00 in0.0 mm 0.07 in1.8 mm
07:25 AM 59.0°F15.0°C 57.9°F14.4°C 96% Calm Calm -- 30.11 in1019.6 mb - 0.00 in0.0 mm 0.07 in1.8 mm
07:20 AM 59.0°F15.0°C 57.9°F14.4°C 96% Calm Calm -- 30.11 in1019.6 mb - 0.00 in0.0 mm 0.07 in1.8 mm
07:15 AM 59.0°F15.0°C 57.9°F14.4°C 96% 1.2 mph 1.9 kmh 2.3 mph3.7 kmh 30.11 in1019.6 mb - 0.00 in0.0 mm 0.07 in1.8 mm
07:10 AM 59.0°F15.0°C 57.9°F14.4°C 96% Calm Calm 2.3 mph3.7 kmh 30.10 in1019.3 mb - 0.00 in0.0 mm 0.07 in1.8 mm
07:05 AM 59.0°F15.0°C 57.9°F14.4°C 96% Calm Calm -- 30.11 in1019.6 mb - 0.00 in0.0 mm 0.07 in1.8 mm
07:00 AM 59.0°F15.0°C 57.9°F14.4°C 96% Calm Calm 1.2 mph1.9 kmh 30.10 in1019.3 mb - 0.00 in0.0 mm 0.07 in1.8 mm
06:55 AM 59.0°F15.0°C 57.9°F14.4°C 96% Calm Calm -- 30.11 in1019.6 mb - 0.00 in0.0 mm 0.07 in1.8 mm
06:50 AM 59.0°F15.0°C 57.9°F14.4°C 96% Calm Calm -- 30.11 in1019.6 mb - 0.00 in0.0 mm 0.07 in1.8 mm
06:45 AM 57.2°F14.0°C 56.1°F13.4°C 96% Calm Calm -- 30.11 in1019.6 mb - 0.00 in0.0 mm 0.07 in1.8 mm
06:40 AM 57.2°F14.0°C 56.1°F13.4°C 96% Calm Calm -- 30.11 in1019.6 mb - 0.00 in0.0 mm 0.07 in1.8 mm
06:35 AM 57.2°F14.0°C 56.1°F13.4°C 96% Calm Calm -- 30.10 in1019.3 mb - 0.00 in0.0 mm 0.07 in1.8 mm
06:30 AM 59.0°F15.0°C 57.9°F14.4°C 96% Calm Calm 1.2 mph1.9 kmh 30.09 in1019.0 mb - 0.00 in0.0 mm 0.07 in1.8 mm
06:25 AM 59.0°F15.0°C 57.9°F14.4°C 96% Calm Calm -- 30.09 in1019.0 mb - 0.00 in0.0 mm 0.07 in1.8 mm
06:20 AM 59.0°F15.0°C 57.9°F14.4°C 96% Calm Calm 3.5 mph5.6 kmh 30.09 in1019.0 mb - 0.00 in0.0 mm 0.07 in1.8 mm
06:15 AM 59.0°F15.0°C 57.9°F14.4°C 96% Calm Calm 1.2 mph1.9 kmh 30.09 in1019.0 mb - 0.00 in0.0 mm 0.07 in1.8 mm
06:10 AM 59.0°F15.0°C 57.9°F14.4°C 96% Calm Calm -- 30.09 in1019.0 mb - 0.00 in0.0 mm 0.07 in1.8 mm
06:05 AM 59.0°F15.0°C 57.9°F14.4°C 96% Calm Calm 1.2 mph1.9 kmh 30.09 in1019.0 mb - 0.00 in0.0 mm 0.07 in1.8 mm
06:00 AM 59.0°F15.0°C 57.9°F14.4°C 96% Calm Calm -- 30.09 in1019.0 mb - 0.00 in0.0 mm 0.07 in1.8 mm
05:55 AM 59.0°F15.0°C 57.6°F14.2°C 95% Calm Calm -- 30.09 in1019.0 mb - 0.00 in0.0 mm 0.07 in1.8 mm
05:50 AM 59.0°F15.0°C 57.6°F14.2°C 95% 1.2 mph N1.9 kmh N -- 30.09 in1019.0 mb - 0.00 in0.0 mm 0.07 in1.8 mm
05:45 AM 59.0°F15.0°C 57.6°F14.2°C 95% 1.2 mph NNE1.9 kmh NNE 1.2 mph1.9 kmh 30.09 in1019.0 mb - 0.00 in0.0 mm 0.07 in1.8 mm
05:40 AM 59.0°F15.0°C 57.6°F14.2°C 95% Calm Calm 1.2 mph1.9 kmh 30.09 in1019.0 mb - 0.00 in0.0 mm 0.07 in1.8 mm
05:35 AM 59.0°F15.0°C 57.6°F14.2°C 95% Calm Calm -- 30.09 in1019.0 mb - 0.00 in0.0 mm 0.07 in1.8 mm
05:30 AM 59.0°F15.0°C 57.6°F14.2°C 95% 1.2 mph NE1.9 kmh NE 3.5 mph5.6 kmh 30.08 in1018.6 mb - 0.00 in0.0 mm 0.07 in1.8 mm
05:25 AM 59.0°F15.0°C 57.6°F14.2°C 95% 1.2 mph NE1.9 kmh NE 2.3 mph3.7 kmh 30.08 in1018.6 mb - 0.00 in0.0 mm 0.07 in1.8 mm
05:20 AM 59.0°F15.0°C 57.6°F14.2°C 95% 1.2 mph E1.9 kmh E 1.2 mph1.9 kmh 30.08 in1018.6 mb - 0.00 in0.0 mm 0.07 in1.8 mm
05:15 AM 59.0°F15.0°C 57.6°F14.2°C 95% 1.2 mph NE1.9 kmh NE 1.2 mph1.9 kmh 30.08 in1018.6 mb - 0.00 in0.0 mm 0.07 in1.8 mm
05:10 AM 59.0°F15.0°C 57.6°F14.2°C 95% Calm Calm 2.3 mph3.7 kmh 30.08 in1018.6 mb - 0.00 in0.0 mm 0.07 in1.8 mm
05:05 AM 59.0°F15.0°C 57.6°F14.2°C 95% Calm Calm 1.2 mph1.9 kmh 30.08 in1018.6 mb - 0.00 in0.0 mm 0.07 in1.8 mm
05:00 AM 59.0°F15.0°C 57.6°F14.2°C 95% 1.2 mph E1.9 kmh E 2.3 mph3.7 kmh 30.08 in1018.6 mb - 0.00 in0.0 mm 0.07 in1.8 mm
04:55 AM 59.0°F15.0°C 57.6°F14.2°C 95% Calm Calm -- 30.08 in1018.6 mb - 0.00 in0.0 mm 0.07 in1.8 mm
04:50 AM 59.0°F15.0°C 57.6°F14.2°C 95% Calm Calm 1.2 mph1.9 kmh 30.08 in1018.6 mb - 0.00 in0.0 mm 0.07 in1.8 mm
04:45 AM 59.0°F15.0°C 57.6°F14.2°C 95% Calm Calm 2.3 mph3.7 kmh 30.08 in1018.6 mb - 0.00 in0.0 mm 0.07 in1.8 mm
04:40 AM 59.0°F15.0°C 57.6°F14.2°C 95% Calm Calm -- 30.08 in1018.6 mb - 0.00 in0.0 mm 0.07 in1.8 mm
04:35 AM 59.0°F15.0°C 57.6°F14.2°C 95% 1.2 mph NNE1.9 kmh NNE 1.2 mph1.9 kmh 30.08 in1018.6 mb - 0.00 in0.0 mm 0.07 in1.8 mm
04:30 AM 59.0°F15.0°C 57.6°F14.2°C 95% Calm Calm -- 30.08 in1018.6 mb - 0.00 in0.0 mm 0.07 in1.8 mm
04:25 AM 60.8°F16.0°C 59.4°F15.2°C 95% Calm Calm -- 30.08 in1018.6 mb - 0.00 in0.0 mm 0.07 in1.8 mm
04:20 AM 60.8°F16.0°C 59.4°F15.2°C 95% Calm Calm -- 30.08 in1018.6 mb - 0.00 in0.0 mm 0.07 in1.8 mm
04:15 AM 60.8°F16.0°C 59.4°F15.2°C 95% Calm Calm 1.2 mph1.9 kmh 30.08 in1018.6 mb - 0.00 in0.0 mm 0.07 in1.8 mm
04:10 AM 60.8°F16.0°C 59.4°F15.2°C 95% Calm Calm -- 30.08 in1018.6 mb - 0.00 in0.0 mm 0.07 in1.8 mm
04:05 AM 60.8°F16.0°C 59.4°F15.2°C 95% 1.2 mph NE1.9 kmh NE 1.2 mph1.9 kmh 30.09 in1019.0 mb - 0.00 in0.0 mm 0.07 in1.8 mm
04:00 AM 60.8°F16.0°C 59.4°F15.2°C 95% Calm Calm 2.3 mph3.7 kmh 30.09 in1019.0 mb - 0.00 in0.0 mm 0.07 in1.8 mm
03:55 AM 60.8°F16.0°C 59.4°F15.2°C 95% 1.2 mph NE1.9 kmh NE -- 30.09 in1019.0 mb - 0.00 in0.0 mm 0.07 in1.8 mm
03:50 AM 60.8°F16.0°C 59.4°F15.2°C 95% 1.2 mph ENE1.9 kmh ENE 1.2 mph1.9 kmh 30.09 in1019.0 mb - 0.00 in0.0 mm 0.07 in1.8 mm
03:45 AM 60.8°F16.0°C 59.4°F15.2°C 95% 1.2 mph NNE1.9 kmh NNE 2.3 mph3.7 kmh 30.08 in1018.6 mb - 0.00 in0.0 mm 0.07 in1.8 mm
03:40 AM 60.8°F16.0°C 59.4°F15.2°C 95% 1.2 mph N1.9 kmh N 2.3 mph3.7 kmh 30.09 in1019.0 mb - 0.00 in0.0 mm 0.07 in1.8 mm
03:35 AM 60.8°F16.0°C 59.4°F15.2°C 95% 1.2 mph NNE1.9 kmh NNE 2.3 mph3.7 kmh 30.08 in1018.6 mb - 0.00 in0.0 mm 0.07 in1.8 mm
03:30 AM 60.8°F16.0°C 59.4°F15.2°C 95% 1.2 mph E1.9 kmh E 2.3 mph3.7 kmh 30.08 in1018.6 mb - 0.00 in0.0 mm 0.07 in1.8 mm
03:25 AM 60.8°F16.0°C 59.4°F15.2°C 95% 1.2 mph NNE1.9 kmh NNE 1.2 mph1.9 kmh 30.08 in1018.6 mb - 0.00 in0.0 mm 0.07 in1.8 mm
03:20 AM 60.8°F16.0°C 59.4°F15.2°C 95% 1.2 mph N1.9 kmh N 1.2 mph1.9 kmh 30.08 in1018.6 mb - 0.00 in0.0 mm 0.07 in1.8 mm
03:15 AM 60.8°F16.0°C 59.4°F15.2°C 95% 1.2 mph E1.9 kmh E 3.5 mph5.6 kmh 30.06 in1017.9 mb - 0.00 in0.0 mm 0.07 in1.8 mm
03:10 AM 60.8°F16.0°C 59.4°F15.2°C 95% 1.2 mph NE1.9 kmh NE 1.2 mph1.9 kmh 30.07 in1018.3 mb - 0.00 in0.0 mm 0.07 in1.8 mm
03:05 AM 60.8°F16.0°C 59.4°F15.2°C 95% 1.2 mph NNE1.9 kmh NNE 3.5 mph5.6 kmh 30.08 in1018.6 mb - 0.00 in0.0 mm 0.07 in1.8 mm
03:00 AM 60.8°F16.0°C 59.4°F15.2°C 95% 1.2 mph E1.9 kmh E 2.3 mph3.7 kmh 30.08 in1018.6 mb - 0.00 in0.0 mm 0.07 in1.8 mm
02:55 AM 60.8°F16.0°C 59.4°F15.2°C 95% 1.2 mph E1.9 kmh E -- 30.08 in1018.6 mb - 0.00 in0.0 mm 0.07 in1.8 mm
02:50 AM 60.8°F16.0°C 59.4°F15.2°C 95% Calm Calm 1.2 mph1.9 kmh 30.07 in1018.3 mb - 0.00 in0.0 mm 0.07 in1.8 mm
02:45 AM 60.8°F16.0°C 59.4°F15.2°C 95% Calm Calm -- 30.07 in1018.3 mb - 0.00 in0.0 mm 0.07 in1.8 mm
02:40 AM 60.8°F16.0°C 59.4°F15.2°C 95% Calm Calm -- 30.07 in1018.3 mb - 0.00 in0.0 mm 0.07 in1.8 mm
02:35 AM 60.8°F16.0°C 59.4°F15.2°C 95% 1.2 mph NE1.9 kmh NE -- 30.06 in1017.9 mb - 0.00 in0.0 mm 0.07 in1.8 mm
02:30 AM 60.8°F16.0°C 59.4°F15.2°C 95% Calm Calm 1.2 mph1.9 kmh 30.07 in1018.3 mb - 0.00 in0.0 mm 0.07 in1.8 mm
02:25 AM 60.8°F16.0°C 59.4°F15.2°C 95% Calm Calm 1.2 mph1.9 kmh 30.07 in1018.3 mb - 0.00 in0.0 mm 0.07 in1.8 mm
02:20 AM 60.8°F16.0°C 59.4°F15.2°C 95% Calm Calm -- 30.07 in1018.3 mb - 0.00 in0.0 mm 0.07 in1.8 mm
02:15 AM 60.8°F16.0°C 59.4°F15.2°C 95% 1.2 mph NNE1.9 kmh NNE 1.2 mph1.9 kmh 30.07 in1018.3 mb - 0.00 in0.0 mm 0.07 in1.8 mm
02:10 AM 60.8°F16.0°C 59.4°F15.2°C 95% 1.2 mph NNE1.9 kmh NNE 2.3 mph3.7 kmh 30.07 in1018.3 mb - 0.00 in0.0 mm 0.07 in1.8 mm
02:05 AM 60.8°F16.0°C 59.4°F15.2°C 95% Calm Calm -- 30.07 in1018.3 mb - 0.00 in0.0 mm 0.07 in1.8 mm
02:00 AM 60.8°F16.0°C 59.4°F15.2°C 95% Calm Calm 2.3 mph3.7 kmh 30.07 in1018.3 mb - 0.00 in0.0 mm 0.07 in1.8 mm
01:55 AM 60.8°F16.0°C 59.4°F15.2°C 95% 1.2 mph NE1.9 kmh NE 1.2 mph1.9 kmh 30.08 in1018.6 mb - 0.00 in0.0 mm 0.07 in1.8 mm
01:50 AM 60.8°F16.0°C 59.4°F15.2°C 95% Calm Calm 3.5 mph5.6 kmh 30.07 in1018.3 mb - 0.00 in0.0 mm 0.07 in1.8 mm
01:45 AM 60.8°F16.0°C 59.4°F15.2°C 95% 1.2 mph NE1.9 kmh NE -- 30.08 in1018.6 mb - 0.00 in0.0 mm 0.07 in1.8 mm
01:40 AM 60.8°F16.0°C 59.4°F15.2°C 95% 1.2 mph NNE1.9 kmh NNE 2.3 mph3.7 kmh 30.08 in1018.6 mb - 0.00 in0.0 mm 0.07 in1.8 mm
01:35 AM 60.8°F16.0°C 59.4°F15.2°C 95% Calm Calm -- 30.08 in1018.6 mb - 0.00 in0.0 mm 0.07 in1.8 mm
01:30 AM 60.8°F16.0°C 59.4°F15.2°C 95% 1.2 mph 1.9 kmh 1.2 mph1.9 kmh 30.08 in1018.6 mb - 0.00 in0.0 mm 0.07 in1.8 mm
01:25 AM 60.8°F16.0°C 58.8°F14.9°C 93% Calm Calm -- 30.08 in1018.6 mb - 0.00 in0.0 mm 0.07 in1.8 mm
01:20 AM 60.8°F16.0°C 58.8°F14.9°C 93% 1.2 mph ENE1.9 kmh ENE 3.5 mph5.6 kmh 30.07 in1018.3 mb - 0.03 in0.8 mm 0.07 in1.8 mm
01:15 AM 62.6°F17.0°C 60.5°F15.8°C 93% Calm Calm -- 30.08 in1018.6 mb - 0.01 in0.3 mm 0.04 in1.0 mm
01:10 AM 62.6°F17.0°C 60.5°F15.8°C 93% Calm Calm -- 30.08 in1018.6 mb - 0.00 in0.0 mm 0.03 in0.8 mm
01:05 AM 62.6°F17.0°C 60.5°F15.8°C 93% Calm Calm 1.2 mph1.9 kmh 30.08 in1018.6 mb - 0.00 in0.0 mm 0.03 in0.8 mm
01:00 AM 62.6°F17.0°C 60.5°F15.8°C 93% 1.2 mph NE1.9 kmh NE 1.2 mph1.9 kmh 30.08 in1018.6 mb - 0.03 in0.8 mm 0.03 in0.8 mm
12:55 AM 62.6°F17.0°C 59.9°F15.5°C 91% 1.2 mph NE1.9 kmh NE 2.3 mph3.7 kmh 30.08 in1018.6 mb - 0.00 in0.0 mm 0.00 in0.0 mm
12:50 AM 62.6°F17.0°C 59.9°F15.5°C 91% 1.2 mph ENE1.9 kmh ENE 2.3 mph3.7 kmh 30.08 in1018.6 mb - 0.00 in0.0 mm 0.00 in0.0 mm
12:45 AM 62.6°F17.0°C 59.9°F15.5°C 91% Calm Calm -- 30.08 in1018.6 mb - 0.00 in0.0 mm 0.00 in0.0 mm
12:40 AM 62.6°F17.0°C 59.9°F15.5°C 91% Calm Calm 2.3 mph3.7 kmh 30.09 in1019.0 mb - 0.00 in0.0 mm 0.00 in0.0 mm
12:35 AM 62.6°F17.0°C 59.9°F15.5°C 91% Calm Calm -- 30.09 in1019.0 mb - 0.00 in0.0 mm 0.00 in0.0 mm
12:30 AM 62.6°F17.0°C 59.9°F15.5°C 91% Calm Calm -- 30.09 in1019.0 mb - 0.00 in0.0 mm 0.00 in0.0 mm
12:25 AM 62.6°F17.0°C 59.9°F15.5°C 91% Calm Calm 1.2 mph1.9 kmh 30.08 in1018.6 mb - 0.00 in0.0 mm 0.00 in0.0 mm
12:20 AM 62.6°F17.0°C 59.9°F15.5°C 91% 1.2 mph NE1.9 kmh NE 1.2 mph1.9 kmh 30.08 in1018.6 mb - 0.00 in0.0 mm 0.00 in0.0 mm
12:15 AM 62.6°F17.0°C 59.9°F15.5°C 91% 2.3 mph NE3.7 kmh NE 2.3 mph3.7 kmh 30.07 in1018.3 mb - 0.00 in0.0 mm 0.00 in0.0 mm
12:10 AM 62.6°F17.0°C 59.9°F15.5°C 91% 2.3 mph NE3.7 kmh NE 2.3 mph3.7 kmh 30.07 in1018.3 mb - 0.00 in0.0 mm 0.00 in0.0 mm
12:00 AM 62.6°F17.0°C 59.9°F15.5°C 91% 2.3 mph N3.7 kmh N 2.3 mph3.7 kmh 30.08 in1018.6 mb - 0.00 in0.0 mm 0.00 in0.0 mm